Terminal Aerodrome Forecast
Issued by NWS Spokane, WA

Home | Current Version | Previous Version | Text Only | Print | Product List | Glossary On
Versions: 1 2 3 4 5 6 7 8 9 10 11 12 13 14 15 16 17 18 19 20 21 22 23 24 25 26 27 28
000
FTUS46 KOTX 210539
TAFEAT
TAF
KEAT 210539Z 2106/2206 00000KT P6SM SCT080 BKN200
     FM211000 VRB02KT P6SM SCT025 OVC100
     FM211600 VRB02KT 2SM -SN OVC015
     FM212000 VRB02KT 4SM -RASN BKN010 OVC025
     FM212300 17003KT 6SM BR OVC025
     FM220300 32005KT P6SM SCT025 SCT250=

USA.gov is the U.S. government's official web portal to all federal, state and local government web resources and services.